createdAt,value
2022-10-04T00:02:18.174Z,84.83
2022-10-04T00:05:23.665Z,85.22
2022-10-04T00:08:43.679Z,85.21
2022-10-04T00:11:48.194Z,85.29
2022-10-04T00:14:51.916Z,85.42
2022-10-04T00:18:11.845Z,85.60
2022-10-04T00:21:13.825Z,85.64
2022-10-04T00:24:29.527Z,85.71
2022-10-04T00:27:31.380Z,85.87
2022-10-04T00:30:38.476Z,85.87
2022-10-04T00:33:49.346Z,85.86
2022-10-04T00:36:53.673Z,86.11
2022-10-04T00:40:02.681Z,85.95
2022-10-04T00:43:08.913Z,86.27
2022-10-04T00:46:16.292Z,86.16
2022-10-04T00:49:23.089Z,86.75
2022-10-04T00:52:32.547Z,86.43
2022-10-04T00:55:39.886Z,86.46
2022-10-04T00:59:06.743Z,86.85
2022-10-04T01:02:20.640Z,86.84
2022-10-04T01:05:28.269Z,86.84
2022-10-04T01:08:36.709Z,86.87
2022-10-04T01:11:45.109Z,86.79
2022-10-04T01:15:08.801Z,86.75
2022-10-04T01:18:16.022Z,86.98
2022-10-04T01:21:20.677Z,87.43
2022-10-04T01:24:22.654Z,87.74
2022-10-04T01:27:34.137Z,87.79
2022-10-04T01:30:36.071Z,87.83
2022-10-04T01:33:37.926Z,87.79
2022-10-04T01:36:39.824Z,88.05
2022-10-04T01:39:41.662Z,88.19
2022-10-04T01:42:55.776Z,88.23
2022-10-04T01:46:04.267Z,88.17
2022-10-04T01:49:16.194Z,88.43
2022-10-04T01:52:27.507Z,88.43
2022-10-04T01:55:34.348Z,88.48
2022-10-04T01:58:48.565Z,88.60
2022-10-04T02:01:57.873Z,88.47
2022-10-04T02:05:02.578Z,88.14
2022-10-04T02:08:16.680Z,88.07
2022-10-04T02:11:21.446Z,88.08
2022-10-04T02:14:27.600Z,88.32
2022-10-04T02:17:39.524Z,88.16
2022-10-04T02:20:42.818Z,87.96
2022-10-04T02:23:46.134Z,88.03
2022-10-04T02:26:52.489Z,87.84
2022-10-04T02:30:00.905Z,87.92
2022-10-04T02:33:03.031Z,88.06
2022-10-04T02:36:09.520Z,87.98
2022-10-04T02:39:26.607Z,87.75
2022-10-04T02:42:34.426Z,87.59
2022-10-04T02:45:36.096Z,87.79
2022-10-04T02:48:43.769Z,87.89
2022-10-04T02:52:02.281Z,87.80
2022-10-04T02:55:24.367Z,87.87
2022-10-04T02:58:27.334Z,87.78
2022-10-04T03:01:42.105Z,87.89
2022-10-04T03:04:44.164Z,87.56
2022-10-04T03:07:46.594Z,87.58
2022-10-04T03:10:49.160Z,87.58
2022-10-04T03:13:54.462Z,87.38
2022-10-04T03:17:00.891Z,87.47
2022-10-04T03:20:06.089Z,87.50
2022-10-04T03:23:10.569Z,87.37
2022-10-04T03:26:46.021Z,87.51
2022-10-04T03:29:50.350Z,87.44
2022-10-04T03:32:53.079Z,87.53
2022-10-04T03:36:00.907Z,87.33
2022-10-04T03:39:09.348Z,86.93
2022-10-04T03:42:27.291Z,87.00
2022-10-04T03:45:30.205Z,86.82
2022-10-04T03:48:35.940Z,86.91
2022-10-04T03:51:43.665Z,86.71
2022-10-04T03:54:46.172Z,86.62
2022-10-04T03:57:48.131Z,86.79
2022-10-04T04:00:58.818Z,86.55
2022-10-04T04:04:19.372Z,86.36
2022-10-04T04:07:38.484Z,86.43
2022-10-04T04:10:48.071Z,86.50
2022-10-04T04:14:04.835Z,86.48
2022-10-04T04:17:25.506Z,86.52
2022-10-04T04:20:46.816Z,86.37
2022-10-04T04:23:58.665Z,86.21
2022-10-04T04:27:05.324Z,86.19
2022-10-04T04:30:08.953Z,85.96
2022-10-04T04:33:21.949Z,85.86
2022-10-04T04:36:23.633Z,85.63
2022-10-04T04:39:34.584Z,86.01
2022-10-04T04:42:36.373Z,85.83
2022-10-04T04:45:38.702Z,85.78
2022-10-04T04:48:45.194Z,85.75
2022-10-04T04:51:53.073Z,85.50
2022-10-04T04:54:56.129Z,85.74
2022-10-04T04:57:59.718Z,85.25
2022-10-04T05:01:14.480Z,85.16
2022-10-04T05:04:21.623Z,84.95
2022-10-04T05:07:23.731Z,84.81
2022-10-04T05:10:35.160Z,84.69
2022-10-04T05:14:06.865Z,84.62
2022-10-04T05:17:25.884Z,84.63
2022-10-04T05:20:28.775Z,84.23
2022-10-04T05:23:30.660Z,84.51
2022-10-04T05:26:32.642Z,83.65
2022-10-04T05:29:37.858Z,83.11
2022-10-04T05:33:00.126Z,82.56
2022-10-04T05:36:11.065Z,82.45
2022-10-04T05:39:18.637Z,81.85
2022-10-04T05:42:27.660Z,80.82
2022-10-04T05:45:31.666Z,79.75
2022-10-04T05:48:36.426Z,79.31
2022-10-04T05:52:03.483Z,78.62
2022-10-04T05:55:23.995Z,77.95
2022-10-04T05:59:04.402Z,76.89
2022-10-04T06:02:11.980Z,76.20
2022-10-04T06:05:38.228Z,74.36
2022-10-04T06:08:48.722Z,74.18
2022-10-04T06:11:57.044Z,72.95
2022-10-04T06:15:07.850Z,71.73
2022-10-04T06:18:21.919Z,71.17
2022-10-04T06:21:36.534Z,71.28
2022-10-04T06:24:42.828Z,70.76
2022-10-04T06:27:58.063Z,70.33
2022-10-04T06:31:36.662Z,70.16
2022-10-04T06:35:06.081Z,68.32
2022-10-04T06:38:46.282Z,68.36
2022-10-04T06:42:11.891Z,66.80
2022-10-04T06:45:31.067Z,66.37
2022-10-04T06:48:59.471Z,67.32
2022-10-04T06:52:08.925Z,67.88
2022-10-04T06:55:29.200Z,68.48
2022-10-04T06:59:26.664Z,67.45
2022-10-04T07:02:39.483Z,68.61
2022-10-04T07:06:05.156Z,68.26
2022-10-04T07:09:19.382Z,68.04
2022-10-04T07:12:21.656Z,68.44
2022-10-04T07:15:29.807Z,68.76
2022-10-04T07:18:50.610Z,68.50
2022-10-04T07:22:18.671Z,67.59
2022-10-04T07:25:29.014Z,67.81
2022-10-04T07:28:58.446Z,67.20
2022-10-04T07:32:06.237Z,68.11
2022-10-04T07:35:13.051Z,67.89
2022-10-04T07:38:16.106Z,67.76
2022-10-04T07:41:20.822Z,67.47
2022-10-04T07:44:28.173Z,67.43
2022-10-04T07:47:31.972Z,67.54
2022-10-04T07:50:44.332Z,67.71
2022-10-04T07:54:04.220Z,67.44
2022-10-04T07:57:22.541Z,67.02
2022-10-04T08:00:36.868Z,66.76
2022-10-04T08:03:58.475Z,65.41
2022-10-04T08:07:19.827Z,65.74
2022-10-04T08:10:35.506Z,65.58
2022-10-04T08:13:57.519Z,65.09
2022-10-04T08:17:17.842Z,64.96
2022-10-04T08:20:36.898Z,64.41
2022-10-04T08:23:57.204Z,64.76
2022-10-04T08:27:17.055Z,64.85
2022-10-04T08:30:19.346Z,64.77
2022-10-04T08:33:39.674Z,64.21
2022-10-04T08:37:01.898Z,64.19
2022-10-04T08:40:44.260Z,62.32
2022-10-04T08:44:30.110Z,60.95
2022-10-04T08:47:57.823Z,59.88
2022-10-04T08:51:37.302Z,55.17
2022-10-04T08:55:11.840Z,56.28
2022-10-04T08:58:15.971Z,56.40
2022-10-04T09:01:29.076Z,52.63
2022-10-04T09:05:05.049Z,52.17
2022-10-04T09:08:27.567Z,53.75
2022-10-04T09:11:41.693Z,53.01
2022-10-04T09:15:02.333Z,52.03
2022-10-04T09:18:13.321Z,50.72
2022-10-04T09:21:40.538Z,51.00
2022-10-04T09:24:57.636Z,50.13
2022-10-04T09:28:02.241Z,50.59
2022-10-04T09:31:46.428Z,46.61
2022-10-04T09:35:06.393Z,49.04
2022-10-04T09:38:45.591Z,48.54
2022-10-04T09:41:59.524Z,45.12
2022-10-04T09:45:07.575Z,47.56
2022-10-04T09:48:37.555Z,48.60
2022-10-04T09:52:05.063Z,49.38
2022-10-04T09:55:17.172Z,50.03
2022-10-04T09:58:55.311Z,50.03
2022-10-04T10:02:18.961Z,48.31
2022-10-04T10:05:23.972Z,49.93
2022-10-04T10:08:48.504Z,48.90
2022-10-04T10:12:44.305Z,50.78
2022-10-04T10:16:25.807Z,49.86
2022-10-04T10:20:05.120Z,51.55
2022-10-04T10:23:33.214Z,52.35
2022-10-04T10:26:47.059Z,51.94
2022-10-04T10:29:59.538Z,51.73
2022-10-04T10:33:17.341Z,53.24
2022-10-04T10:36:34.327Z,54.11
2022-10-04T10:40:04.443Z,53.52
2022-10-04T10:43:38.479Z,54.98
2022-10-04T10:46:54.079Z,54.98
2022-10-04T10:50:57.059Z,55.05
2022-10-04T10:54:20.745Z,55.53
2022-10-04T10:57:57.125Z,54.56
2022-10-04T11:01:28.659Z,55.23
2022-10-04T11:04:45.850Z,54.95
2022-10-04T11:08:11.654Z,55.08
2022-10-04T11:11:57.642Z,55.10
2022-10-04T11:15:21.215Z,55.16
2022-10-04T11:19:09.140Z,55.61
2022-10-04T11:22:19.739Z,56.13
2022-10-04T11:25:44.801Z,56.54
2022-10-04T11:29:00.426Z,57.38
2022-10-04T11:32:02.205Z,57.49
2022-10-04T11:35:23.118Z,57.98
2022-10-04T11:38:29.606Z,58.17
2022-10-04T11:41:55.611Z,57.86
2022-10-04T11:45:05.476Z,57.81
2022-10-04T11:48:38.471Z,57.36
2022-10-04T11:52:16.883Z,57.62
2022-10-04T11:55:22.161Z,58.06
2022-10-04T11:58:29.082Z,58.29
2022-10-04T12:01:49.645Z,58.17
2022-10-04T12:05:28.525Z,57.91
2022-10-04T12:08:36.329Z,57.98
2022-10-04T12:12:26.273Z,57.86
2022-10-04T12:15:41.092Z,58.39
2022-10-04T12:19:17.894Z,57.95
2022-10-04T12:22:39.047Z,56.89
2022-10-04T12:26:19.119Z,56.64
2022-10-04T12:29:33.135Z,57.41
2022-10-04T12:32:58.482Z,58.26
2022-10-04T12:46:30.940Z,60.22
2022-10-04T12:50:11.279Z,61.00
2022-10-04T12:53:43.756Z,61.18
2022-10-04T12:56:59.598Z,61.28
2022-10-04T13:00:18.764Z,61.79
2022-10-04T13:03:44.304Z,60.88
2022-10-04T13:07:01.087Z,62.69
2022-10-04T13:10:25.849Z,64.82
2022-10-04T13:13:36.168Z,66.75
2022-10-04T13:20:12.965Z,69.63
2022-10-04T13:23:15.721Z,70.30
2022-10-04T13:26:36.402Z,71.29
2022-10-04T13:29:55.209Z,71.49
2022-10-04T13:33:15.440Z,71.98
2022-10-04T13:36:25.719Z,72.20
2022-10-04T13:40:02.736Z,73.39
2022-10-04T13:43:04.933Z,73.17
2022-10-04T13:46:20.155Z,73.64
2022-10-04T13:49:58.278Z,73.41
2022-10-04T13:53:44.153Z,73.39
2022-10-04T13:57:10.042Z,73.83
2022-10-04T14:00:37.817Z,73.48
2022-10-04T14:03:57.781Z,74.48
2022-10-04T14:07:32.056Z,74.14
2022-10-04T14:11:16.957Z,74.35
2022-10-04T14:14:47.376Z,74.22
2022-10-04T14:18:23.495Z,72.62
2022-10-04T14:21:55.626Z,72.57
2022-10-04T14:25:21.766Z,72.67
2022-10-04T14:28:49.791Z,73.28
2022-10-04T14:32:23.804Z,73.54
2022-10-04T14:35:56.433Z,74.32
2022-10-04T14:39:28.870Z,74.60
2022-10-04T14:42:48.812Z,74.89
2022-10-04T14:46:17.785Z,75.21
2022-10-04T14:49:44.648Z,75.54
2022-10-04T14:53:22.976Z,75.80
2022-10-04T14:56:43.779Z,76.07
2022-10-04T14:59:59.986Z,76.03
2022-10-04T15:03:30.198Z,76.16
2022-10-04T15:06:43.017Z,76.33
2022-10-04T15:10:04.217Z,76.51
2022-10-04T15:13:32.113Z,76.53
2022-10-04T15:16:47.461Z,76.52
2022-10-04T15:20:16.643Z,76.52
2022-10-04T15:23:34.949Z,76.61
2022-10-04T15:27:15.451Z,76.66
2022-10-04T15:30:46.133Z,76.95
2022-10-04T15:34:36.101Z,77.05
2022-10-04T15:38:18.130Z,77.37
2022-10-04T15:41:44.116Z,77.41
2022-10-04T15:45:01.865Z,77.78
2022-10-04T15:48:44.484Z,78.02
2022-10-04T15:52:09.723Z,77.90
2022-10-04T15:55:30.241Z,78.04
2022-10-04T15:58:52.734Z,78.45
2022-10-04T16:01:55.256Z,78.33
2022-10-04T16:05:25.464Z,78.66
2022-10-04T16:08:47.204Z,78.69
2022-10-04T16:12:01.684Z,78.86
2022-10-04T16:15:21.308Z,78.72
2022-10-04T16:18:57.087Z,78.82
2022-10-04T16:22:17.441Z,79.23
2022-10-04T16:25:28.115Z,79.29
2022-10-04T16:29:05.170Z,79.50
2022-10-04T16:32:31.664Z,79.74
2022-10-04T16:36:04.431Z,79.66
2022-10-04T16:39:29.784Z,79.69
2022-10-04T16:42:52.865Z,80.00
2022-10-04T16:46:06.916Z,80.20
2022-10-04T16:49:29.131Z,80.00
2022-10-04T16:52:37.649Z,80.19
2022-10-04T16:55:57.912Z,80.30
2022-10-04T16:59:03.705Z,80.70
2022-10-04T17:02:27.275Z,80.40
2022-10-04T17:05:50.773Z,80.50
2022-10-04T17:09:14.966Z,80.58
2022-10-04T17:12:29.052Z,80.67
2022-10-04T17:15:59.380Z,80.71
2022-10-04T17:19:34.593Z,80.80
2022-10-04T17:22:44.008Z,80.72
2022-10-04T17:25:51.953Z,80.88
2022-10-04T17:29:28.114Z,80.92
2022-10-04T17:32:54.374Z,81.13
2022-10-04T17:36:31.228Z,80.97
2022-10-04T17:40:07.984Z,81.17
2022-10-04T17:43:20.416Z,81.10
2022-10-04T17:46:30.825Z,80.92
2022-10-04T17:50:31.748Z,80.97
2022-10-04T17:53:55.909Z,81.06
2022-10-04T17:57:06.235Z,81.42
2022-10-04T18:00:18.077Z,81.22
2022-10-04T18:03:26.742Z,81.30
2022-10-04T18:06:35.429Z,81.41
2022-10-04T18:09:54.270Z,81.61
2022-10-04T18:13:17.221Z,81.46
2022-10-04T18:16:31.614Z,81.62
2022-10-04T18:19:36.683Z,81.60
2022-10-04T18:23:00.589Z,81.71
2022-10-04T18:26:24.013Z,81.76
2022-10-04T18:29:43.461Z,81.81
2022-10-04T18:32:58.634Z,81.93
2022-10-04T18:36:15.399Z,82.08
2022-10-04T18:39:24.486Z,81.94
2022-10-04T18:42:30.280Z,82.02
2022-10-04T18:45:36.570Z,81.96
2022-10-04T18:48:55.300Z,81.97
2022-10-04T18:52:11.745Z,81.93
2022-10-04T18:55:41.059Z,81.93
2022-10-04T18:59:12.174Z,81.86
2022-10-04T19:02:54.902Z,81.64
2022-10-04T19:06:09.035Z,81.73
2022-10-04T19:09:41.449Z,81.75
2022-10-04T19:13:11.098Z,81.53
2022-10-04T19:16:53.818Z,81.49
2022-10-04T19:20:43.906Z,81.35
2022-10-04T19:24:22.414Z,81.43
2022-10-04T19:27:42.736Z,81.46
2022-10-04T19:31:03.671Z,81.53
2022-10-04T19:34:21.030Z,81.44
2022-10-04T19:37:37.641Z,81.34
2022-10-04T19:40:50.869Z,81.51
2022-10-04T19:44:11.674Z,81.51
2022-10-04T19:47:41.610Z,81.46
2022-10-04T19:50:50.483Z,81.50
2022-10-04T19:53:57.966Z,81.31
2022-10-04T19:57:01.703Z,81.28
2022-10-04T20:00:15.380Z,81.26
2022-10-04T20:03:17.510Z,81.30
2022-10-04T20:06:26.205Z,81.15
2022-10-04T20:09:44.027Z,81.09
2022-10-04T20:13:13.399Z,81.23
2022-10-04T20:16:48.656Z,81.16
2022-10-04T20:19:51.002Z,81.43
2022-10-04T20:22:56.359Z,81.26
2022-10-04T20:25:58.028Z,81.42
2022-10-04T20:29:00.344Z,81.37
2022-10-04T20:32:06.398Z,81.24
2022-10-04T20:35:29.292Z,81.24
2022-10-04T20:38:51.625Z,81.08
2022-10-04T20:42:20.229Z,81.37
2022-10-04T20:45:24.960Z,81.24
2022-10-04T20:48:29.019Z,81.28
2022-10-04T20:51:34.457Z,81.23
2022-10-04T20:54:36.316Z,81.20
2022-10-04T20:57:40.729Z,81.25
2022-10-04T21:00:54.678Z,81.14
2022-10-04T21:04:15.957Z,81.04
2022-10-04T21:07:22.931Z,81.18
2022-10-04T21:10:24.711Z,81.20
2022-10-04T21:13:41.612Z,81.38
2022-10-04T21:16:46.864Z,81.36
2022-10-04T21:19:49.151Z,81.25
2022-10-04T21:23:08.318Z,81.14
2022-10-04T21:26:20.191Z,81.61
2022-10-04T21:29:21.997Z,81.53
2022-10-04T21:32:25.422Z,81.75
2022-10-04T21:35:27.148Z,81.39
2022-10-04T21:38:28.998Z,81.60
2022-10-04T21:41:30.825Z,81.44
2022-10-04T21:44:32.716Z,81.31
2022-10-04T21:47:34.514Z,81.39
2022-10-04T21:50:36.617Z,81.28
2022-10-04T21:53:38.364Z,81.26
2022-10-04T21:56:40.152Z,81.30
2022-10-04T21:59:41.898Z,81.29
2022-10-04T22:02:43.742Z,81.45
2022-10-04T22:05:45.602Z,81.43
2022-10-04T22:08:47.786Z,81.43
2022-10-04T22:11:49.656Z,81.28
2022-10-04T22:14:51.416Z,81.59
2022-10-04T22:17:53.531Z,81.77
2022-10-04T22:20:55.390Z,81.86
2022-10-04T22:24:03.845Z,81.68
2022-10-04T22:27:13.252Z,81.76
2022-10-04T22:30:26.579Z,81.76
2022-10-04T22:33:31.659Z,81.91
2022-10-04T22:36:39.273Z,81.97
2022-10-04T22:39:41.089Z,82.09
2022-10-04T22:42:43.294Z,82.07
2022-10-04T22:45:45.048Z,82.02
2022-10-04T22:48:49.207Z,82.20
2022-10-04T22:51:53.111Z,82.20
2022-10-04T22:55:00.396Z,82.13
2022-10-04T22:58:03.398Z,82.16
2022-10-04T23:01:12.674Z,82.17
2022-10-04T23:04:25.731Z,82.27
2022-10-04T23:07:27.422Z,82.65
2022-10-04T23:10:29.226Z,82.14
2022-10-04T23:13:31.081Z,82.33
2022-10-04T23:16:33.506Z,82.39
2022-10-04T23:19:35.328Z,82.43
2022-10-04T23:22:37.288Z,82.37
2022-10-04T23:25:40.363Z,82.61
2022-10-04T23:28:42.163Z,82.32
2022-10-04T23:31:46.283Z,82.29
2022-10-04T23:34:56.281Z,82.41
2022-10-04T23:37:58.672Z,82.49
2022-10-04T23:41:00.769Z,82.61
2022-10-04T23:44:02.569Z,82.80
2022-10-04T23:47:14.408Z,82.49
2022-10-04T23:50:24.036Z,82.83
2022-10-04T23:53:28.543Z,83.09
2022-10-04T23:56:30.641Z,82.94
2022-10-04T23:59:32.477Z,82.95
